createdAt,value
2022-11-10T00:15:51.629Z,10
2022-11-10T00:44:22.014Z,4
2022-11-10T01:12:51.343Z,5
2022-11-10T01:41:23.028Z,6
2022-11-10T02:09:53.241Z,6
2022-11-10T02:38:25.478Z,4
2022-11-10T03:06:55.454Z,5
2022-11-10T03:35:23.643Z,4
2022-11-10T04:03:53.861Z,4
2022-11-10T04:32:26.070Z,6
2022-11-10T05:00:54.550Z,7
2022-11-10T05:29:15.688Z,23
2022-11-10T05:57:39.416Z,9
2022-11-10T06:26:06.257Z,7
2022-11-10T06:54:34.447Z,10
2022-11-10T07:22:56.602Z,14
2022-11-10T07:51:23.791Z,21
2022-11-10T08:19:51.883Z,22
2022-11-10T08:48:17.909Z,20
2022-11-10T09:16:48.714Z,14
2022-11-10T09:45:18.636Z,14
2022-11-10T10:13:52.097Z,12
2022-11-10T10:42:23.392Z,10
2022-11-10T11:10:53.947Z,12
2022-11-10T11:39:24.894Z,13
2022-11-10T12:07:57.598Z,9
2022-11-10T12:36:22.206Z,7
2022-11-10T13:04:50.865Z,7
2022-11-10T13:33:21.814Z,8
2022-11-10T14:01:51.567Z,7
2022-11-10T14:30:18.278Z,9
2022-11-10T14:58:45.087Z,8
2022-11-10T15:27:11.201Z,12
2022-11-10T15:55:34.284Z,21
2022-11-10T16:23:50.403Z,21
2022-11-10T16:52:07.890Z,32
2022-11-10T17:20:31.978Z,14
2022-11-10T17:48:50.862Z,25
2022-11-10T18:17:05.199Z,41
2022-11-10T18:45:22.601Z,28
2022-11-10T19:13:37.041Z,21
2022-11-10T19:41:57.230Z,40
2022-11-10T20:10:15.620Z,30
2022-11-10T20:38:33.942Z,32
2022-11-10T21:06:51.593Z,23
2022-11-10T21:35:09.085Z,21
2022-11-10T22:31:54.946Z,45
2022-11-10T23:28:41.947Z,28
2022-11-10T23:57:02.205Z,25
